createdAt,value
2018-09-05T00:00:11.922Z,99.90
2018-09-05T00:02:41.294Z,99.90
2018-09-05T00:05:10.877Z,99.90
2018-09-05T00:07:40.338Z,99.90
2018-09-05T00:10:09.715Z,99.90
2018-09-05T00:12:39.168Z,99.90
2018-09-05T00:15:08.545Z,99.90
2018-09-05T00:22:39.329Z,99.90
2018-09-05T00:25:08.639Z,99.90
2018-09-05T00:28:03.600Z,99.90
2018-09-05T00:30:33.065Z,99.90
2018-09-05T00:33:02.397Z,99.90
2018-09-05T00:35:31.557Z,99.90
2018-09-05T00:38:00.706Z,99.90
2018-09-05T00:42:58.695Z,99.90
2018-09-05T00:48:05.426Z,99.90
2018-09-05T00:50:34.509Z,99.90
2018-09-05T00:53:03.596Z,99.90
2018-09-05T00:55:32.869Z,99.90
2018-09-05T00:58:10.054Z,99.90
2018-09-05T01:00:39.522Z,99.90
2018-09-05T01:03:08.932Z,99.90
2018-09-05T01:05:38.302Z,99.90
2018-09-05T01:08:08.670Z,99.90
2018-09-05T01:10:38.082Z,99.90
2018-09-05T01:15:36.660Z,99.90
2018-09-05T01:18:06.053Z,99.90
2018-09-05T01:20:35.351Z,99.90
2018-09-05T01:23:04.785Z,99.90
2018-09-05T01:25:34.084Z,99.90
2018-09-05T01:28:03.472Z,99.90
2018-09-05T01:30:32.816Z,99.90
2018-09-05T01:33:02.216Z,99.90
2018-09-05T01:35:31.517Z,99.90
2018-09-05T01:38:09.714Z,99.90
2018-09-05T01:40:39.093Z,99.90
2018-09-05T01:43:08.522Z,99.90
2018-09-05T01:45:37.896Z,99.90
2018-09-05T01:48:10.346Z,99.90
2018-09-05T01:50:44.381Z,99.90
2018-09-05T01:53:14.416Z,99.90
2018-09-05T01:55:43.814Z,99.90
2018-09-05T01:58:15.216Z,99.90
2018-09-05T02:00:44.324Z,99.90
2018-09-05T02:03:13.448Z,99.90
2018-09-05T02:05:42.532Z,99.90
2018-09-05T02:08:28.265Z,99.90
2018-09-05T02:10:57.288Z,99.90
2018-09-05T02:13:26.408Z,99.90
2018-09-05T02:15:55.568Z,99.90
2018-09-05T02:18:31.881Z,99.90
2018-09-05T02:21:00.941Z,99.90
2018-09-05T02:23:30.068Z,99.90
2018-09-05T02:25:59.297Z,99.90
2018-09-05T02:28:36.480Z,99.90
2018-09-05T02:31:06.431Z,99.90
2018-09-05T02:33:35.873Z,99.90
2018-09-05T02:36:05.322Z,99.90
2018-09-05T02:38:44.434Z,99.90
2018-09-05T02:41:13.869Z,99.90
2018-09-05T02:43:48.458Z,99.90
2018-09-05T02:46:17.829Z,99.90
2018-09-05T02:48:48.286Z,99.90
2018-09-05T02:51:17.742Z,99.90
2018-09-05T02:53:47.085Z,99.90
2018-09-05T02:56:16.465Z,99.90
2018-09-05T02:59:04.133Z,99.90
2018-09-05T03:01:33.497Z,99.90
2018-09-05T03:04:02.892Z,99.90
2018-09-05T03:06:32.216Z,99.90
2018-09-05T03:09:11.301Z,99.90
2018-09-05T03:11:40.602Z,99.90
2018-09-05T03:14:10.121Z,99.90
2018-09-05T03:16:39.497Z,99.90
2018-09-05T03:19:10.877Z,99.90
2018-09-05T03:21:40.305Z,99.90
2018-09-05T03:24:09.787Z,99.90
2018-09-05T03:26:39.141Z,99.90
2018-09-05T03:29:17.017Z,99.90
2018-09-05T03:31:46.450Z,99.90
2018-09-05T03:34:15.832Z,99.90
2018-09-05T03:36:45.210Z,99.90
2018-09-05T03:39:21.669Z,99.90
2018-09-05T03:41:51.108Z,99.90
2018-09-05T03:44:20.502Z,99.90
2018-09-05T03:46:49.948Z,99.90
2018-09-05T03:49:26.514Z,99.90
2018-09-05T03:51:55.769Z,99.90
2018-09-05T03:54:25.193Z,99.90
2018-09-05T03:56:54.582Z,99.90
2018-09-05T03:59:27.153Z,99.90
2018-09-05T04:01:56.561Z,99.90
2018-09-05T04:04:25.973Z,99.90
2018-09-05T04:06:55.379Z,99.90
2018-09-05T04:10:02.429Z,99.90
2018-09-05T04:12:31.842Z,99.90
2018-09-05T04:15:01.205Z,99.90
2018-09-05T04:17:39.205Z,99.90
2018-09-05T04:20:09.305Z,99.90
2018-09-05T04:22:38.712Z,99.90
2018-09-05T04:25:09.878Z,99.90
2018-09-05T04:27:40.312Z,99.90
2018-09-05T04:30:09.817Z,99.90
2018-09-05T04:32:39.126Z,99.90
2018-09-05T04:35:08.538Z,99.90
2018-09-05T04:37:41.706Z,99.90
2018-09-05T04:40:11.160Z,99.90
2018-09-05T04:42:40.590Z,99.90
2018-09-05T04:45:09.971Z,99.90
2018-09-05T04:47:40.437Z,99.90
2018-09-05T04:50:10.714Z,99.90
2018-09-05T04:52:40.220Z,99.90
2018-09-05T04:55:09.552Z,99.90
2018-09-05T04:57:46.753Z,99.90
2018-09-05T05:00:16.181Z,99.90
2018-09-05T05:02:45.606Z,99.90
2018-09-05T05:05:14.972Z,99.90
2018-09-05T05:07:45.512Z,99.90
2018-09-05T05:10:14.906Z,99.90
2018-09-05T05:12:44.290Z,99.90
2018-09-05T05:15:13.769Z,99.90
2018-09-05T05:17:47.404Z,99.90
2018-09-05T05:20:16.770Z,99.90
2018-09-05T05:22:46.137Z,99.90
2018-09-05T05:25:15.557Z,99.90
2018-09-05T05:27:48.768Z,99.90
2018-09-05T05:30:18.126Z,99.90
2018-09-05T05:32:47.673Z,99.90
2018-09-05T05:35:16.938Z,99.90
2018-09-05T05:38:01.594Z,99.90
2018-09-05T05:40:30.917Z,99.90
2018-09-05T05:43:00.355Z,99.90
2018-09-05T05:45:29.672Z,99.90
2018-09-05T05:48:06.536Z,99.90
2018-09-05T05:50:35.877Z,99.90
2018-09-05T05:53:05.498Z,99.90
2018-09-05T05:55:34.888Z,99.90
2018-09-05T05:58:16.880Z,99.90
2018-09-05T06:00:46.336Z,99.90
2018-09-05T06:03:15.744Z,99.90
2018-09-05T06:05:45.073Z,99.90
2018-09-05T06:08:15.513Z,99.90
2018-09-05T06:10:44.928Z,99.90
2018-09-05T06:13:14.312Z,99.90
2018-09-05T06:15:43.683Z,99.90
2018-09-05T06:18:14.205Z,99.90
2018-09-05T06:20:43.640Z,99.90
2018-09-05T06:23:13.033Z,99.90
2018-09-05T06:25:42.425Z,99.90
2018-09-05T06:28:12.930Z,99.90
2018-09-05T06:30:42.447Z,99.90
2018-09-05T06:33:11.643Z,99.90
2018-09-05T06:35:41.034Z,99.90
2018-09-05T06:50:57.934Z,99.90
2018-09-05T06:53:27.269Z,99.90
2018-09-05T06:58:25.736Z,99.90
2018-09-05T07:00:54.839Z,99.90
2018-09-05T07:03:23.965Z,99.90
2018-09-05T07:05:53.028Z,99.90
2018-09-05T07:08:22.201Z,99.90
2018-09-05T07:10:51.546Z,99.90
2018-09-05T07:15:50.096Z,99.90
2018-09-05T07:18:19.496Z,99.90
2018-09-05T07:20:48.885Z,99.90
2018-09-05T07:25:47.745Z,99.90
2018-09-05T07:28:20.298Z,99.90
2018-09-05T07:30:49.720Z,99.90
2018-09-05T07:35:49.111Z,99.90
2018-09-05T07:38:19.540Z,99.90
2018-09-05T07:40:48.885Z,99.90
2018-09-05T07:43:18.370Z,99.90
2018-09-05T07:45:47.800Z,99.90
2018-09-05T07:48:21.254Z,99.90
2018-09-05T07:53:19.578Z,99.90
2018-09-05T07:55:48.997Z,99.90
2018-09-05T07:58:53.334Z,99.90
2018-09-05T08:01:22.720Z,99.90
2018-09-05T08:03:52.135Z,99.90
2018-09-05T08:06:21.626Z,99.90
2018-09-05T08:08:56.846Z,99.90
2018-09-05T08:11:26.224Z,99.90
2018-09-05T08:13:55.724Z,99.90
2018-09-05T08:16:59.912Z,99.90
2018-09-05T08:19:36.753Z,99.90
2018-09-05T08:22:05.875Z,99.90
2018-09-05T08:24:35.045Z,99.90
2018-09-05T08:27:04.107Z,99.90
2018-09-05T08:29:33.174Z,99.90
2018-09-05T08:32:02.267Z,99.90
2018-09-05T08:34:31.392Z,99.90
2018-09-05T08:37:00.754Z,99.90
2018-09-05T08:39:37.645Z,99.90
2018-09-05T08:42:06.770Z,99.90
2018-09-05T08:44:35.924Z,99.90
2018-09-05T08:47:05.022Z,99.90
2018-09-05T08:49:34.375Z,99.90
2018-09-05T08:52:04.218Z,99.90
2018-09-05T08:54:33.368Z,99.90
2018-09-05T08:57:02.461Z,99.90
2018-09-05T09:02:00.425Z,99.90
2018-09-05T09:04:29.563Z,99.90
2018-09-05T09:06:58.646Z,99.90
2018-09-05T09:09:27.862Z,99.90
2018-09-05T09:14:26.951Z,99.90
2018-09-05T09:16:57.225Z,99.90
2018-09-05T09:19:27.011Z,99.90
2018-09-05T09:21:57.497Z,99.90
2018-09-05T09:24:28.676Z,99.90
2018-09-05T09:26:58.351Z,99.90
2018-09-05T09:29:28.338Z,99.90
2018-09-05T09:31:58.361Z,99.90
2018-09-05T09:34:27.489Z,99.90
2018-09-05T09:36:57.687Z,99.90
2018-09-05T09:39:27.994Z,99.90
2018-09-05T09:41:57.541Z,99.90
2018-09-05T09:44:26.909Z,99.90
2018-09-05T09:49:26.086Z,99.90
2018-09-05T09:51:59.957Z,99.90
2018-09-05T09:54:29.344Z,99.90
2018-09-05T09:56:58.793Z,99.90
2018-09-05T09:59:36.417Z,99.90
2018-09-05T10:02:11.042Z,99.90
2018-09-05T10:04:45.615Z,99.90
2018-09-05T10:07:21.473Z,99.90
2018-09-05T10:09:54.184Z,99.90
2018-09-05T10:12:28.640Z,99.90
2018-09-05T10:15:02.822Z,99.90
2018-09-05T10:17:34.795Z,99.90
2018-09-05T10:22:33.579Z,99.90
2018-09-05T10:25:02.921Z,99.90
2018-09-05T10:27:34.080Z,99.90
2018-09-05T10:30:03.521Z,99.90
2018-09-05T10:35:01.935Z,99.90
2018-09-05T10:37:34.482Z,99.90
2018-09-05T10:42:33.908Z,99.90
2018-09-05T10:45:03.274Z,99.90
2018-09-05T10:47:34.840Z,99.90
2018-09-05T10:50:04.280Z,99.90
2018-09-05T10:52:33.906Z,99.90
2018-09-05T10:55:03.270Z,98.00
2018-09-05T10:57:33.810Z,95.70
2018-09-05T11:00:10.462Z,97.40
2018-09-05T11:02:39.799Z,95.20
2018-09-05T11:07:38.470Z,90.20
2018-09-05T11:10:07.894Z,91.90
2018-09-05T11:12:37.362Z,90.30
2018-09-05T11:15:06.898Z,92.40
2018-09-05T11:17:38.550Z,80.00
2018-09-05T11:22:38.374Z,78.30
2018-09-05T11:25:07.457Z,76.90
2018-09-05T11:27:37.885Z,78.70
2018-09-05T11:30:08.475Z,86.00
2018-09-05T11:32:37.889Z,85.50
2018-09-05T11:35:07.430Z,80.60
2018-09-05T11:37:59.360Z,84.60
2018-09-05T11:40:28.677Z,79.70
2018-09-05T11:42:58.102Z,82.70
2018-09-05T11:45:27.499Z,81.30
2018-09-05T11:48:00.067Z,73.70
2018-09-05T11:50:29.513Z,79.30
2018-09-05T11:52:58.908Z,72.70
2018-09-05T11:55:28.436Z,72.80
2018-09-05T11:57:58.982Z,72.40
2018-09-05T12:00:28.141Z,68.40
2018-09-05T12:02:57.320Z,64.20
2018-09-05T12:05:26.478Z,67.00
2018-09-05T12:08:06.005Z,59.70
2018-09-05T12:10:35.085Z,63.30
2018-09-05T12:13:04.209Z,65.50
2018-09-05T12:15:33.304Z,68.10
2018-09-05T12:18:03.618Z,66.70
2018-09-05T12:20:32.724Z,68.40
2018-09-05T12:23:01.950Z,65.40
2018-09-05T12:25:31.311Z,63.30
2018-09-05T12:28:05.088Z,59.80
2018-09-05T12:30:34.560Z,57.10
2018-09-05T12:33:03.976Z,57.80
2018-09-05T12:35:33.475Z,55.50
2018-09-05T12:38:46.952Z,57.30
2018-09-05T12:41:16.432Z,57.80
2018-09-05T12:43:45.780Z,56.60
2018-09-05T12:46:15.185Z,56.40
2018-09-05T12:51:14.665Z,54.80
2018-09-05T12:53:44.066Z,60.10
2018-09-05T12:56:13.557Z,56.70
2018-09-05T12:58:51.120Z,55.40
2018-09-05T13:01:20.496Z,54.40
2018-09-05T13:03:50.002Z,56.70
2018-09-05T13:06:19.224Z,52.20
2018-09-05T13:11:20.412Z,50.30
2018-09-05T13:13:49.544Z,93.10
2018-09-05T13:16:18.811Z,47.20
2018-09-05T13:18:51.730Z,46.40
2018-09-05T13:21:21.170Z,47.00
2018-09-05T13:23:50.565Z,43.80
2018-09-05T13:28:52.301Z,45.70
2018-09-05T13:31:21.767Z,47.40
2018-09-05T13:33:51.192Z,45.90
2018-09-05T13:36:20.636Z,42.80
2018-09-05T13:38:50.045Z,42.80
2018-09-05T13:41:19.518Z,43.80
2018-09-05T13:43:49.073Z,41.00
2018-09-05T13:46:18.644Z,41.20
2018-09-05T13:49:00.801Z,43.30
2018-09-05T13:51:30.238Z,45.40
2018-09-05T13:53:59.632Z,43.00
2018-09-05T13:56:29.205Z,44.70
2018-09-05T13:58:58.712Z,42.50
2018-09-05T14:01:28.172Z,43.20
2018-09-05T14:03:57.574Z,44.90
2018-09-05T14:06:26.985Z,43.30
2018-09-05T14:08:58.433Z,40.80
2018-09-05T14:11:27.798Z,37.70
2018-09-05T14:13:57.240Z,40.50
2018-09-05T14:16:26.605Z,40.00
2018-09-05T14:18:56.964Z,38.00
2018-09-05T14:21:26.435Z,38.90
2018-09-05T14:23:55.877Z,42.50
2018-09-05T14:26:25.354Z,42.80
2018-09-05T14:28:55.566Z,42.10
2018-09-05T14:31:24.680Z,41.60
2018-09-05T14:33:53.756Z,40.50
2018-09-05T14:36:22.862Z,39.90
2018-09-05T14:38:52.107Z,38.90
2018-09-05T14:41:21.249Z,38.90
2018-09-05T14:43:50.381Z,48.70
2018-09-05T14:46:19.522Z,39.90
2018-09-05T14:48:49.672Z,39.30
2018-09-05T14:51:18.815Z,41.20
2018-09-05T14:53:48.192Z,39.60
2018-09-05T14:56:17.594Z,38.60
2018-09-05T14:58:48.070Z,43.40
2018-09-05T15:01:17.471Z,40.90
2018-09-05T15:03:46.813Z,40.60
2018-09-05T15:06:16.365Z,37.50
2018-09-05T15:08:48.082Z,39.10
2018-09-05T15:11:17.618Z,37.70
2018-09-05T15:13:47.054Z,38.50
2018-09-05T15:16:16.526Z,36.90
2018-09-05T15:18:57.484Z,48.60
2018-09-05T15:21:26.886Z,44.90
2018-09-05T15:23:56.325Z,52.80
2018-09-05T15:34:00.707Z,41.70
2018-09-05T15:36:30.096Z,42.40
2018-09-05T15:38:59.459Z,40.20
2018-09-05T15:41:28.830Z,41.40
2018-09-05T15:43:58.216Z,39.80
2018-09-05T15:46:27.634Z,40.40
2018-09-05T15:49:01.737Z,41.60
2018-09-05T15:51:31.181Z,41.30
2018-09-05T15:54:00.729Z,40.00
2018-09-05T15:56:29.974Z,39.10
2018-09-05T15:59:09.092Z,38.80
2018-09-05T16:01:38.442Z,42.10
2018-09-05T16:04:07.985Z,40.70
2018-09-05T16:06:37.334Z,41.70
2018-09-05T16:09:29.856Z,40.30
2018-09-05T16:11:59.384Z,40.20
2018-09-05T16:14:28.679Z,40.00
2018-09-05T16:16:58.109Z,40.50
2018-09-05T16:19:28.562Z,41.40
2018-09-05T16:21:58.000Z,42.90
2018-09-05T16:24:27.292Z,43.50
2018-09-05T16:26:56.620Z,42.80
2018-09-05T16:29:29.697Z,44.10
2018-09-05T16:31:59.220Z,45.70
2018-09-05T16:36:57.876Z,49.70
2018-09-05T16:46:55.653Z,52.10
2018-09-05T16:49:27.102Z,52.30
2018-09-05T16:54:25.624Z,55.30
2018-09-05T16:56:54.984Z,56.50
2018-09-05T17:01:53.521Z,92.90
2018-09-05T17:04:22.898Z,61.00
2018-09-05T17:06:52.276Z,79.60
2018-09-05T17:09:21.838Z,64.00
2018-09-05T17:11:51.193Z,64.90
2018-09-05T17:14:20.598Z,63.90
2018-09-05T17:16:50.063Z,65.10
2018-09-05T17:19:33.315Z,78.60
2018-09-05T17:22:02.758Z,72.70
2018-09-05T17:24:32.306Z,92.00
2018-09-05T17:29:48.077Z,75.90
2018-09-05T17:32:17.468Z,79.00
2018-09-05T17:34:46.942Z,96.50
2018-09-05T17:37:17.129Z,93.00
2018-09-05T17:39:46.239Z,89.30
2018-09-05T17:42:15.396Z,95.20
2018-09-05T17:47:21.179Z,99.90
2018-09-05T17:49:50.285Z,99.90
2018-09-05T17:52:19.385Z,99.90
2018-09-05T17:54:48.998Z,99.90
2018-09-05T17:57:19.485Z,99.90
2018-09-05T17:59:48.926Z,99.90
2018-09-05T18:02:18.342Z,99.90
2018-09-05T18:07:16.974Z,99.90
2018-09-05T18:12:15.321Z,99.90
2018-09-05T18:14:44.464Z,99.90
2018-09-05T18:17:16.853Z,99.90
2018-09-05T18:19:46.002Z,99.90
2018-09-05T18:22:15.140Z,99.90
2018-09-05T18:27:13.135Z,99.90
2018-09-05T18:29:42.243Z,99.90
2018-09-05T18:32:11.357Z,99.90
2018-09-05T18:37:09.284Z,99.90
2018-09-05T18:42:07.629Z,99.90
2018-09-05T18:44:37.063Z,99.90
2018-09-05T18:47:06.481Z,99.90
2018-09-05T18:49:35.842Z,99.90
2018-09-05T18:52:05.233Z,99.90
2018-09-05T18:54:34.716Z,99.90
2018-09-05T18:57:04.185Z,99.90
2018-09-05T19:00:19.040Z,99.90
2018-09-05T19:02:48.497Z,99.90
2018-09-05T19:08:15.180Z,99.90
2018-09-05T19:13:13.710Z,99.90
2018-09-05T19:15:43.026Z,99.90
2018-09-05T19:18:20.894Z,99.90
2018-09-05T19:20:50.333Z,99.90
2018-09-05T19:23:19.788Z,99.90
2018-09-05T19:25:49.119Z,99.90
2018-09-05T19:28:31.978Z,99.90
2018-09-05T19:31:01.374Z,99.90
2018-09-05T19:33:30.805Z,99.90
2018-09-05T19:36:00.170Z,99.90
2018-09-05T19:38:37.094Z,99.90
2018-09-05T19:41:06.667Z,99.90
2018-09-05T19:43:36.100Z,99.90
2018-09-05T19:46:05.624Z,99.90
2018-09-05T19:48:39.721Z,99.90
2018-09-05T19:51:09.153Z,99.90
2018-09-05T19:53:38.618Z,99.90
2018-09-05T19:56:08.030Z,99.90
2018-09-05T19:58:46.878Z,99.90
2018-09-05T20:01:16.313Z,99.90
2018-09-05T20:03:45.694Z,99.90
2018-09-05T20:06:15.217Z,99.90
2018-09-05T20:08:52.689Z,99.90
2018-09-05T20:11:22.131Z,99.90
2018-09-05T20:13:51.642Z,99.90
2018-09-05T20:16:21.065Z,99.90
2018-09-05T20:24:02.350Z,99.90
2018-09-05T20:26:31.738Z,99.90
2018-09-05T20:29:08.628Z,99.90
2018-09-05T20:31:38.046Z,99.90
2018-09-05T20:34:07.433Z,99.90
2018-09-05T20:36:36.846Z,99.90
2018-09-05T20:39:15.165Z,99.90
2018-09-05T20:41:44.268Z,99.90
2018-09-05T20:44:13.381Z,99.90
2018-09-05T20:46:42.516Z,99.90
2018-09-05T20:49:11.720Z,99.90
2018-09-05T20:51:40.900Z,99.90
2018-09-05T20:54:10.088Z,99.90
2018-09-05T20:56:39.316Z,99.90
2018-09-05T20:59:09.440Z,99.90
2018-09-05T21:01:38.545Z,99.90
2018-09-05T21:04:07.645Z,99.90
2018-09-05T21:06:36.744Z,99.90
2018-09-05T21:09:08.413Z,99.90
2018-09-05T21:11:37.509Z,99.90
2018-09-05T21:14:06.633Z,99.90
2018-09-05T21:16:36.203Z,99.90
2018-09-05T21:19:09.980Z,99.90
2018-09-05T21:21:39.122Z,99.90
2018-09-05T21:24:08.480Z,99.90
2018-09-05T21:26:37.909Z,99.90
2018-09-05T21:29:08.310Z,99.90
2018-09-05T21:31:37.808Z,99.90
2018-09-05T21:34:07.316Z,99.90
2018-09-05T21:36:36.702Z,99.90
2018-09-05T21:39:10.810Z,99.90
2018-09-05T21:41:40.142Z,99.90
2018-09-05T21:44:09.673Z,99.90
2018-09-05T21:46:39.172Z,99.90
2018-09-05T21:49:25.676Z,99.90
2018-09-05T21:51:55.030Z,99.90
2018-09-05T21:54:24.486Z,99.90
2018-09-05T21:56:53.985Z,99.90
2018-09-05T21:59:40.520Z,99.90
2018-09-05T22:02:10.003Z,99.90
2018-09-05T22:04:39.416Z,99.90
2018-09-05T22:07:08.830Z,99.90
2018-09-05T22:09:38.205Z,99.90
2018-09-05T22:12:07.677Z,99.90
2018-09-05T22:14:36.980Z,99.90
2018-09-05T22:17:06.359Z,99.90
2018-09-05T22:19:35.752Z,99.90
2018-09-05T22:22:05.132Z,99.90
2018-09-05T22:24:34.423Z,99.90
2018-09-05T22:27:03.765Z,99.90
2018-09-05T22:29:40.772Z,99.90
2018-09-05T22:32:10.251Z,99.90
2018-09-05T22:34:39.552Z,99.90
2018-09-05T22:39:38.026Z,99.90
2018-09-05T22:42:07.421Z,99.90
2018-09-05T22:44:54.959Z,99.90
2018-09-05T22:47:44.885Z,99.90
2018-09-05T22:54:44.335Z,99.90
2018-09-05T23:00:20.142Z,99.90
2018-09-05T23:05:09.794Z,99.90
2018-09-05T23:09:05.082Z,99.90
2018-09-05T23:11:49.574Z,99.90
2018-09-05T23:14:47.690Z,99.90
2018-09-05T23:17:41.837Z,99.90
2018-09-05T23:21:00.675Z,99.90
2018-09-05T23:23:46.850Z,99.90
2018-09-05T23:26:15.954Z,99.90
2018-09-05T23:28:49.779Z,99.90
2018-09-05T23:31:18.955Z,99.90
2018-09-05T23:33:48.299Z,99.90
2018-09-05T23:36:17.714Z,99.90
2018-09-05T23:39:01.003Z,99.90
2018-09-05T23:41:30.450Z,99.90
2018-09-05T23:43:59.739Z,99.90
2018-09-05T23:46:29.181Z,99.90
2018-09-05T23:48:59.534Z,99.90
2018-09-05T23:51:28.934Z,99.90
2018-09-05T23:53:58.346Z,99.90
2018-09-05T23:56:27.830Z,99.90
2018-09-05T23:59:03.219Z,99.90
